PWSweather.com
Personal Weather Stations
Station Observations
MAGOO
Kiefer, OK 74041

Kiefer, OK 74041

Lat: 35.9417305, Lon: -96.03782654

Elevation: 699

Station Type: WMR100N

Latest ConditionsUpdated 9:00:00 AM CST Tuesday, Mar 3, 2015
Currently Today's Max Today's Min Today's Average
Temperature 41.5°F5.3°C 41.5°F5.3°C 36.0°F2.2°C 38.6°F3.7°C
Dew Point 41.0°F5.0°C 41.0°F5.0°C 33.3°F0.7°C 37.8°F3.2°C
Winds 5.0 mph S8.0 kmh S 10.0 mph S16.1 kmh S - 6.8 mph 10.9 kmh
Wind Gusts 11.0 mph17.7 kmh 20.0 mph32.2 kmh - -
Humidity - 0% 0% 0%
Pressure 29.95 in1014.2 mb 30.11 in1019.6 mb 29.95 in1014.2 mb -
Hour Temp Dew Point Humidity Winds Wind Gusts Pressure Precip Precip Rate Daily Precip Total
09:00 AM 41.5°F5.3°C 41.0°F5.0°C - 5.0 mph S8.0 kmh S 11.0 mph17.7 kmh 29.95 in1014.2 mb 0.00 in0.0 mm 0.00 in/hr0.0 mm/hr 0.00 in0.0 mm
08:55 AM 41.4°F5.2°C 40.9°F4.9°C - 5.0 mph S8.0 kmh S 10.0 mph16.1 kmh 29.95 in1014.2 mb 0.00 in0.0 mm 0.00 in/hr0.0 mm/hr 0.00 in0.0 mm
08:50 AM 41.3°F5.2°C 40.7°F4.8°C - 6.0 mph SSW9.7 kmh SSW 13.0 mph20.9 kmh 29.95 in1014.2 mb 0.00 in0.0 mm 0.00 in/hr0.0 mm/hr 0.00 in0.0 mm
08:45 AM 41.2°F5.1°C 40.7°F4.8°C - 8.0 mph S12.9 kmh S 14.0 mph22.5 kmh 29.95 in1014.2 mb 0.00 in0.0 mm 0.00 in/hr0.0 mm/hr 0.00 in0.0 mm
08:40 AM 41.1°F5.1°C 40.5°F4.7°C - 7.0 mph SSW11.3 kmh SSW 10.0 mph16.1 kmh 29.95 in1014.2 mb 0.00 in0.0 mm 0.00 in/hr0.0 mm/hr 0.00 in0.0 mm
08:35 AM 41.0°F5.0°C 40.5°F4.7°C - 9.0 mph S14.5 kmh S 15.0 mph24.1 kmh 29.95 in1014.2 mb 0.00 in0.0 mm 0.00 in/hr0.0 mm/hr 0.00 in0.0 mm
08:30 AM 41.0°F5.0°C 40.5°F4.7°C - 10.0 mph S16.1 kmh S 15.0 mph24.1 kmh 29.95 in1014.2 mb 0.00 in0.0 mm 0.00 in/hr0.0 mm/hr 0.00 in0.0 mm
08:25 AM 41.0°F5.0°C 40.4°F4.7°C - 10.0 mph S16.1 kmh S 13.0 mph20.9 kmh 29.95 in1014.2 mb 0.00 in0.0 mm 0.00 in/hr0.0 mm/hr 0.00 in0.0 mm
08:20 AM 40.8°F4.9°C 40.3°F4.6°C - 10.0 mph S16.1 kmh S 15.0 mph24.1 kmh 29.95 in1014.2 mb 0.00 in0.0 mm 0.00 in/hr0.0 mm/hr 0.00 in0.0 mm
08:15 AM 40.8°F4.9°C 40.3°F4.6°C - 9.0 mph S14.5 kmh S 13.0 mph20.9 kmh 29.95 in1014.2 mb 0.00 in0.0 mm 0.00 in/hr0.0 mm/hr 0.00 in0.0 mm
08:10 AM 40.6°F4.8°C 40.1°F4.5°C - 7.0 mph S11.3 kmh S 11.0 mph17.7 kmh 29.95 in1014.2 mb 0.00 in0.0 mm 0.00 in/hr0.0 mm/hr 0.00 in0.0 mm
08:05 AM 40.6°F4.8°C 40.1°F4.5°C - 8.0 mph S12.9 kmh S 10.0 mph16.1 kmh 29.95 in1014.2 mb 0.00 in0.0 mm 0.00 in/hr0.0 mm/hr 0.00 in0.0 mm
08:00 AM 40.6°F4.8°C 40.1°F4.5°C - 7.0 mph S11.3 kmh S 13.0 mph20.9 kmh 29.95 in1014.2 mb 0.00 in0.0 mm 0.00 in/hr0.0 mm/hr 0.00 in0.0 mm
07:55 AM 40.6°F4.8°C 40.1°F4.5°C - 7.0 mph SSW11.3 kmh SSW 11.0 mph17.7 kmh 29.95 in1014.2 mb 0.00 in0.0 mm 0.00 in/hr0.0 mm/hr 0.00 in0.0 mm
07:50 AM 40.5°F4.7°C 39.9°F4.4°C - 7.0 mph SSW11.3 kmh SSW 13.0 mph20.9 kmh 29.95 in1014.2 mb 0.00 in0.0 mm 0.00 in/hr0.0 mm/hr 0.00 in0.0 mm
07:45 AM 40.5°F4.7°C 39.9°F4.4°C - 8.0 mph S12.9 kmh S 15.0 mph24.1 kmh 29.95 in1014.2 mb 0.00 in0.0 mm 0.00 in/hr0.0 mm/hr 0.00 in0.0 mm
07:40 AM 40.3°F4.6°C 39.8°F4.3°C - 10.0 mph S16.1 kmh S 16.0 mph25.7 kmh 29.95 in1014.2 mb 0.00 in0.0 mm 0.00 in/hr0.0 mm/hr 0.00 in0.0 mm
07:35 AM 40.3°F4.6°C 39.8°F4.3°C - 8.0 mph S12.9 kmh S 13.0 mph20.9 kmh 29.95 in1014.2 mb 0.00 in0.0 mm 0.00 in/hr0.0 mm/hr 0.00 in0.0 mm
07:30 AM 40.3°F4.6°C 39.8°F4.3°C - 7.0 mph S11.3 kmh S 11.0 mph17.7 kmh 29.95 in1014.2 mb 0.00 in0.0 mm 0.00 in/hr0.0 mm/hr 0.00 in0.0 mm
07:25 AM 40.3°F4.6°C 39.8°F4.3°C - 8.0 mph S12.9 kmh S 12.0 mph19.3 kmh 29.95 in1014.2 mb 0.00 in0.0 mm 0.00 in/hr0.0 mm/hr 0.00 in0.0 mm
07:20 AM 40.2°F4.6°C 39.7°F4.3°C - 8.0 mph S12.9 kmh S 13.0 mph20.9 kmh 29.95 in1014.2 mb 0.00 in0.0 mm 0.00 in/hr0.0 mm/hr 0.00 in0.0 mm
07:15 AM 40.1°F4.5°C 39.6°F4.2°C - 8.0 mph S12.9 kmh S 11.0 mph17.7 kmh 29.95 in1014.2 mb 0.00 in0.0 mm 0.00 in/hr0.0 mm/hr 0.00 in0.0 mm
07:10 AM 40.0°F4.4°C 39.5°F4.2°C - 9.0 mph S14.5 kmh S 15.0 mph24.1 kmh 29.95 in1014.2 mb 0.00 in0.0 mm 0.00 in/hr0.0 mm/hr 0.00 in0.0 mm
07:05 AM 39.9°F4.4°C 39.4°F4.1°C - 9.0 mph S14.5 kmh S 17.0 mph27.4 kmh 29.95 in1014.2 mb 0.00 in0.0 mm 0.00 in/hr0.0 mm/hr 0.00 in0.0 mm
07:00 AM 39.9°F4.4°C 39.4°F4.1°C - 8.0 mph S12.9 kmh S 13.0 mph20.9 kmh 29.95 in1014.2 mb 0.00 in0.0 mm 0.00 in/hr0.0 mm/hr 0.00 in0.0 mm
06:55 AM 39.7°F4.3°C 39.2°F4.0°C - 9.0 mph S14.5 kmh S 12.0 mph19.3 kmh 29.95 in1014.2 mb 0.00 in0.0 mm 0.00 in/hr0.0 mm/hr 0.00 in0.0 mm
06:50 AM 39.7°F4.3°C 39.2°F4.0°C - 9.0 mph S14.5 kmh S 13.0 mph20.9 kmh 29.95 in1014.2 mb 0.00 in0.0 mm 0.00 in/hr0.0 mm/hr 0.00 in0.0 mm
06:45 AM 39.7°F4.3°C 39.2°F4.0°C - 8.0 mph S12.9 kmh S 12.0 mph19.3 kmh 29.95 in1014.2 mb 0.00 in0.0 mm 0.00 in/hr0.0 mm/hr 0.00 in0.0 mm
06:40 AM 39.6°F4.2°C 39.0°F3.9°C - 8.0 mph S12.9 kmh S 15.0 mph24.1 kmh 29.95 in1014.2 mb 0.00 in0.0 mm 0.00 in/hr0.0 mm/hr 0.00 in0.0 mm
06:35 AM 39.6°F4.2°C 39.0°F3.9°C - 8.0 mph S12.9 kmh S 15.0 mph24.1 kmh 29.95 in1014.2 mb 0.00 in0.0 mm 0.00 in/hr0.0 mm/hr 0.00 in0.0 mm
06:30 AM 39.4°F4.1°C 38.9°F3.8°C - 9.0 mph S14.5 kmh S 13.0 mph20.9 kmh 29.95 in1014.2 mb 0.00 in0.0 mm 0.00 in/hr0.0 mm/hr 0.00 in0.0 mm
06:25 AM 39.4°F4.1°C 38.9°F3.8°C - 9.0 mph S14.5 kmh S 11.0 mph17.7 kmh 29.95 in1014.2 mb 0.00 in0.0 mm 0.00 in/hr0.0 mm/hr 0.00 in0.0 mm
06:20 AM 39.4°F4.1°C 38.9°F3.8°C - 9.0 mph S14.5 kmh S 15.0 mph24.1 kmh 29.95 in1014.2 mb 0.00 in0.0 mm 0.00 in/hr0.0 mm/hr 0.00 in0.0 mm
06:15 AM 39.3°F4.1°C 38.8°F3.8°C - 9.0 mph S14.5 kmh S 20.0 mph32.2 kmh 29.96 in1014.6 mb 0.00 in0.0 mm 0.00 in/hr0.0 mm/hr 0.00 in0.0 mm
06:10 AM 39.2°F4.0°C 38.7°F3.7°C - 10.0 mph S16.1 kmh S 13.0 mph20.9 kmh 29.96 in1014.6 mb 0.00 in0.0 mm 0.00 in/hr0.0 mm/hr 0.00 in0.0 mm
06:05 AM 39.2°F4.0°C 38.7°F3.7°C - 10.0 mph S16.1 kmh S 15.0 mph24.1 kmh 29.96 in1014.6 mb 0.00 in0.0 mm 0.00 in/hr0.0 mm/hr 0.00 in0.0 mm
06:00 AM 39.2°F4.0°C 38.7°F3.7°C - 7.0 mph S11.3 kmh S 12.0 mph19.3 kmh 29.96 in1014.6 mb 0.00 in0.0 mm 0.00 in/hr0.0 mm/hr 0.00 in0.0 mm
05:55 AM 39.1°F3.9°C 38.6°F3.7°C - 8.0 mph SSE12.9 kmh SSE 11.0 mph17.7 kmh 29.96 in1014.6 mb 0.00 in0.0 mm 0.00 in/hr0.0 mm/hr 0.00 in0.0 mm
05:50 AM 39.0°F3.9°C 38.5°F3.6°C - 9.0 mph S14.5 kmh S 13.0 mph20.9 kmh 29.96 in1014.6 mb 0.00 in0.0 mm 0.00 in/hr0.0 mm/hr 0.00 in0.0 mm
05:45 AM 39.0°F3.9°C 38.5°F3.6°C - 8.0 mph S12.9 kmh S 14.0 mph22.5 kmh 29.96 in1014.6 mb 0.00 in0.0 mm 0.00 in/hr0.0 mm/hr 0.00 in0.0 mm
05:40 AM 39.0°F3.9°C 38.5°F3.6°C - 8.0 mph S12.9 kmh S 14.0 mph22.5 kmh 29.96 in1014.6 mb 0.00 in0.0 mm 0.00 in/hr0.0 mm/hr 0.00 in0.0 mm
05:35 AM 39.0°F3.9°C 38.5°F3.6°C - 8.0 mph S12.9 kmh S 11.0 mph17.7 kmh 29.96 in1014.6 mb 0.00 in0.0 mm 0.00 in/hr0.0 mm/hr 0.00 in0.0 mm
05:30 AM 39.0°F3.9°C 38.4°F3.6°C - 8.0 mph S12.9 kmh S 14.0 mph22.5 kmh 29.99 in1015.6 mb 0.00 in0.0 mm 0.00 in/hr0.0 mm/hr 0.00 in0.0 mm
05:25 AM 38.8°F3.8°C 38.3°F3.5°C - 7.0 mph S11.3 kmh S 11.0 mph17.7 kmh 29.99 in1015.6 mb 0.00 in0.0 mm 0.00 in/hr0.0 mm/hr 0.00 in0.0 mm
05:20 AM 38.8°F3.8°C 38.3°F3.5°C - 8.0 mph S12.9 kmh S 12.0 mph19.3 kmh 29.99 in1015.6 mb 0.00 in0.0 mm 0.00 in/hr0.0 mm/hr 0.00 in0.0 mm
05:15 AM 38.8°F3.8°C 38.3°F3.5°C - 7.0 mph S11.3 kmh S 12.0 mph19.3 kmh 29.99 in1015.6 mb 0.00 in0.0 mm 0.00 in/hr0.0 mm/hr 0.00 in0.0 mm
05:10 AM 38.7°F3.7°C 38.2°F3.4°C - 7.0 mph S11.3 kmh S 8.0 mph12.9 kmh 29.99 in1015.6 mb 0.00 in0.0 mm 0.00 in/hr0.0 mm/hr 0.00 in0.0 mm
05:05 AM 38.7°F3.7°C 38.1°F3.4°C - 6.0 mph S9.7 kmh S 11.0 mph17.7 kmh 29.99 in1015.6 mb 0.00 in0.0 mm 0.00 in/hr0.0 mm/hr 0.00 in0.0 mm
05:00 AM 38.7°F3.7°C 38.1°F3.4°C - 7.0 mph S11.3 kmh S 13.0 mph20.9 kmh 29.99 in1015.6 mb 0.00 in0.0 mm 0.00 in/hr0.0 mm/hr 0.00 in0.0 mm
04:55 AM 38.7°F3.7°C 38.1°F3.4°C - 7.0 mph S11.3 kmh S 10.0 mph16.1 kmh 29.99 in1015.6 mb 0.00 in0.0 mm 0.00 in/hr0.0 mm/hr 0.00 in0.0 mm
04:50 AM 38.7°F3.7°C 38.1°F3.4°C - 7.0 mph S11.3 kmh S 10.0 mph16.1 kmh 29.99 in1015.6 mb 0.00 in0.0 mm 0.00 in/hr0.0 mm/hr 0.00 in0.0 mm
04:45 AM 38.7°F3.7°C 38.1°F3.4°C - 7.0 mph S11.3 kmh S 14.0 mph22.5 kmh 29.99 in1015.6 mb 0.00 in0.0 mm 0.00 in/hr0.0 mm/hr 0.00 in0.0 mm
04:40 AM 38.7°F3.7°C 38.1°F3.4°C - 6.0 mph S9.7 kmh S 10.0 mph16.1 kmh 29.99 in1015.6 mb 0.00 in0.0 mm 0.00 in/hr0.0 mm/hr 0.00 in0.0 mm
04:35 AM 38.7°F3.7°C 38.1°F3.4°C - 7.0 mph S11.3 kmh S 12.0 mph19.3 kmh 29.99 in1015.6 mb 0.00 in0.0 mm 0.00 in/hr0.0 mm/hr 0.00 in0.0 mm
04:30 AM 38.7°F3.7°C 38.1°F3.4°C - 7.0 mph S11.3 kmh S 16.0 mph25.7 kmh 29.99 in1015.6 mb 0.00 in0.0 mm 0.00 in/hr0.0 mm/hr 0.00 in0.0 mm
04:25 AM 38.7°F3.7°C 38.1°F3.4°C - 8.0 mph S12.9 kmh S 15.0 mph24.1 kmh 29.99 in1015.6 mb 0.00 in0.0 mm 0.00 in/hr0.0 mm/hr 0.00 in0.0 mm
04:20 AM 38.7°F3.7°C 38.1°F3.4°C - 9.0 mph S14.5 kmh S 15.0 mph24.1 kmh 29.99 in1015.6 mb 0.00 in0.0 mm 0.00 in/hr0.0 mm/hr 0.00 in0.0 mm
04:15 AM 38.6°F3.7°C 38.1°F3.4°C - 7.0 mph S11.3 kmh S 13.0 mph20.9 kmh 29.99 in1015.6 mb 0.00 in0.0 mm 0.00 in/hr0.0 mm/hr 0.00 in0.0 mm
04:10 AM 38.6°F3.7°C 38.0°F3.3°C - 7.0 mph S11.3 kmh S 13.0 mph20.9 kmh 29.99 in1015.6 mb 0.00 in0.0 mm 0.00 in/hr0.0 mm/hr 0.00 in0.0 mm
04:05 AM 38.5°F3.6°C 38.0°F3.3°C - 6.0 mph S9.7 kmh S 10.0 mph16.1 kmh 29.99 in1015.6 mb 0.00 in0.0 mm 0.00 in/hr0.0 mm/hr 0.00 in0.0 mm
04:00 AM 38.7°F3.7°C 38.1°F3.4°C - 7.0 mph S11.3 kmh S 12.0 mph19.3 kmh 29.99 in1015.6 mb 0.00 in0.0 mm 0.00 in/hr0.0 mm/hr 0.00 in0.0 mm
03:55 AM 38.6°F3.7°C 38.1°F3.4°C - 7.0 mph SSW11.3 kmh SSW 12.0 mph19.3 kmh 29.99 in1015.6 mb 0.00 in0.0 mm 0.00 in/hr0.0 mm/hr 0.00 in0.0 mm
03:50 AM 38.5°F3.6°C 38.0°F3.3°C - 7.0 mph S11.3 kmh S 13.0 mph20.9 kmh 29.99 in1015.6 mb 0.00 in0.0 mm 0.00 in/hr0.0 mm/hr 0.00 in0.0 mm
03:45 AM 38.5°F3.6°C 38.0°F3.3°C - 7.0 mph S11.3 kmh S 11.0 mph17.7 kmh 29.99 in1015.6 mb 0.00 in0.0 mm 0.00 in/hr0.0 mm/hr 0.00 in0.0 mm
03:35 AM 38.5°F3.6°C 37.9°F3.3°C - 7.0 mph S11.3 kmh S 11.0 mph17.7 kmh 29.99 in1015.6 mb 0.00 in0.0 mm 0.00 in/hr0.0 mm/hr 0.00 in0.0 mm
03:30 AM 38.4°F3.6°C 37.8°F3.2°C - 7.0 mph SSE11.3 kmh SSE 13.0 mph20.9 kmh 29.99 in1015.6 mb 0.00 in0.0 mm 0.00 in/hr0.0 mm/hr 0.00 in0.0 mm
03:25 AM 38.3°F3.5°C 37.8°F3.2°C - 7.0 mph S11.3 kmh S 12.0 mph19.3 kmh 29.99 in1015.6 mb 0.00 in0.0 mm 0.00 in/hr0.0 mm/hr 0.00 in0.0 mm
03:20 AM 38.3°F3.5°C 37.8°F3.2°C - 6.0 mph SSE9.7 kmh SSE 10.0 mph16.1 kmh 29.99 in1015.6 mb 0.00 in0.0 mm 0.00 in/hr0.0 mm/hr 0.00 in0.0 mm
03:15 AM 38.1°F3.4°C 37.6°F3.1°C - 5.0 mph S8.0 kmh S 10.0 mph16.1 kmh 30.02 in1016.6 mb 0.00 in0.0 mm 0.00 in/hr0.0 mm/hr 0.00 in0.0 mm
03:10 AM 38.1°F3.4°C 37.6°F3.1°C - 6.0 mph S9.7 kmh S 11.0 mph17.7 kmh 30.02 in1016.6 mb 0.00 in0.0 mm 0.00 in/hr0.0 mm/hr 0.00 in0.0 mm
03:05 AM 38.1°F3.4°C 37.6°F3.1°C - 5.0 mph S8.0 kmh S 6.0 mph9.7 kmh 30.02 in1016.6 mb 0.00 in0.0 mm 0.00 in/hr0.0 mm/hr 0.00 in0.0 mm
03:00 AM 38.1°F3.4°C 37.6°F3.1°C - 4.0 mph S6.4 kmh S 8.0 mph12.9 kmh 30.02 in1016.6 mb 0.00 in0.0 mm 0.00 in/hr0.0 mm/hr 0.00 in0.0 mm
02:55 AM 37.9°F3.3°C 37.4°F3.0°C - 6.0 mph S9.7 kmh S 8.0 mph12.9 kmh 30.02 in1016.6 mb 0.00 in0.0 mm 0.00 in/hr0.0 mm/hr 0.00 in0.0 mm
02:50 AM 37.9°F3.3°C 37.2°F2.9°C - 6.0 mph SSE9.7 kmh SSE 9.0 mph14.5 kmh 30.02 in1016.6 mb 0.00 in0.0 mm 0.00 in/hr0.0 mm/hr 0.00 in0.0 mm
02:45 AM 37.9°F3.3°C 37.2°F2.9°C - 6.0 mph SSE9.7 kmh SSE 9.0 mph14.5 kmh 30.02 in1016.6 mb 0.00 in0.0 mm 0.00 in/hr0.0 mm/hr 0.00 in0.0 mm
02:40 AM 37.9°F3.3°C 37.2°F2.9°C - 6.0 mph S9.7 kmh S 10.0 mph16.1 kmh 30.02 in1016.6 mb 0.00 in0.0 mm 0.00 in/hr0.0 mm/hr 0.00 in0.0 mm
02:35 AM 37.9°F3.3°C 37.2°F2.9°C - 6.0 mph S9.7 kmh S 9.0 mph14.5 kmh 30.02 in1016.6 mb 0.00 in0.0 mm 0.00 in/hr0.0 mm/hr 0.00 in0.0 mm
02:30 AM 37.9°F3.3°C 37.2°F2.9°C - 5.0 mph S8.0 kmh S 11.0 mph17.7 kmh 30.02 in1016.6 mb 0.00 in0.0 mm 0.00 in/hr0.0 mm/hr 0.00 in0.0 mm
02:25 AM 37.8°F3.2°C 37.1°F2.8°C - 7.0 mph S11.3 kmh S 13.0 mph20.9 kmh 30.02 in1016.6 mb 0.00 in0.0 mm 0.00 in/hr0.0 mm/hr 0.00 in0.0 mm
02:20 AM 37.7°F3.2°C 36.9°F2.7°C - 5.0 mph S8.0 kmh S 10.0 mph16.1 kmh 30.02 in1016.6 mb 0.00 in0.0 mm 0.00 in/hr0.0 mm/hr 0.00 in0.0 mm
02:15 AM 37.6°F3.1°C 36.6°F2.6°C - 6.0 mph SE9.7 kmh SE 11.0 mph17.7 kmh 30.02 in1016.6 mb 0.00 in0.0 mm 0.00 in/hr0.0 mm/hr 0.00 in0.0 mm
02:10 AM 37.6°F3.1°C 36.5°F2.5°C - 6.0 mph SSE9.7 kmh SSE 10.0 mph16.1 kmh 30.02 in1016.6 mb 0.00 in0.0 mm 0.00 in/hr0.0 mm/hr 0.00 in0.0 mm
02:05 AM 37.4°F3.0°C 36.4°F2.4°C - 6.0 mph SSE9.7 kmh SSE 10.0 mph16.1 kmh 30.02 in1016.6 mb 0.00 in0.0 mm 0.00 in/hr0.0 mm/hr 0.00 in0.0 mm
02:00 AM 37.4°F3.0°C 36.4°F2.4°C - 6.0 mph S9.7 kmh S 9.0 mph14.5 kmh 30.05 in1017.6 mb 0.00 in0.0 mm 0.00 in/hr0.0 mm/hr 0.00 in0.0 mm
01:55 AM 37.4°F3.0°C 36.4°F2.4°C - 7.0 mph SSE11.3 kmh SSE 12.0 mph19.3 kmh 30.05 in1017.6 mb 0.00 in0.0 mm 0.00 in/hr0.0 mm/hr 0.00 in0.0 mm
01:50 AM 37.3°F2.9°C 36.2°F2.3°C - 6.0 mph SSE9.7 kmh SSE 11.0 mph17.7 kmh 30.05 in1017.6 mb 0.00 in0.0 mm 0.00 in/hr0.0 mm/hr 0.00 in0.0 mm
01:45 AM 37.1°F2.8°C 36.0°F2.2°C - 5.0 mph SSE8.0 kmh SSE 8.0 mph12.9 kmh 30.05 in1017.6 mb 0.00 in0.0 mm 0.00 in/hr0.0 mm/hr 0.00 in0.0 mm
01:40 AM 37.0°F2.8°C 35.8°F2.1°C - 5.0 mph SSE8.0 kmh SSE 11.0 mph17.7 kmh 30.05 in1017.6 mb 0.00 in0.0 mm 0.00 in/hr0.0 mm/hr 0.00 in0.0 mm
01:35 AM 37.0°F2.8°C 35.7°F2.1°C - 5.0 mph SSE8.0 kmh SSE 9.0 mph14.5 kmh 30.05 in1017.6 mb 0.00 in0.0 mm 0.00 in/hr0.0 mm/hr 0.00 in0.0 mm
01:30 AM 37.0°F2.8°C 35.7°F2.1°C - 4.0 mph SSE6.4 kmh SSE 9.0 mph14.5 kmh 30.05 in1017.6 mb 0.00 in0.0 mm 0.00 in/hr0.0 mm/hr 0.00 in0.0 mm
01:25 AM 36.9°F2.7°C 35.6°F2.0°C - 5.0 mph S8.0 kmh S 8.0 mph12.9 kmh 30.05 in1017.6 mb 0.00 in0.0 mm 0.00 in/hr0.0 mm/hr 0.00 in0.0 mm
01:20 AM 36.9°F2.7°C 35.6°F2.0°C - 5.0 mph SE8.0 kmh SE 8.0 mph12.9 kmh 30.05 in1017.6 mb 0.00 in0.0 mm 0.00 in/hr0.0 mm/hr 0.00 in0.0 mm
01:15 AM 36.9°F2.7°C 35.4°F1.9°C - 5.0 mph S8.0 kmh S 8.0 mph12.9 kmh 30.05 in1017.6 mb 0.00 in0.0 mm 0.00 in/hr0.0 mm/hr 0.00 in0.0 mm
01:10 AM 36.7°F2.6°C 35.1°F1.7°C - 5.0 mph S8.0 kmh S 8.0 mph12.9 kmh 30.05 in1017.6 mb 0.00 in0.0 mm 0.00 in/hr0.0 mm/hr 0.00 in0.0 mm
01:05 AM 36.7°F2.6°C 35.1°F1.7°C - 5.0 mph SSE8.0 kmh SSE 9.0 mph14.5 kmh 30.06 in1017.9 mb 0.00 in0.0 mm 0.00 in/hr0.0 mm/hr 0.00 in0.0 mm
01:00 AM 36.7°F2.6°C 35.1°F1.7°C - 5.0 mph S8.0 kmh S 10.0 mph16.1 kmh 30.08 in1018.6 mb 0.00 in0.0 mm 0.00 in/hr0.0 mm/hr 0.00 in0.0 mm
12:55 AM 36.6°F2.6°C 34.8°F1.6°C - 5.0 mph SSE8.0 kmh SSE 9.0 mph14.5 kmh 30.08 in1018.6 mb 0.00 in0.0 mm 0.00 in/hr0.0 mm/hr 0.00 in0.0 mm
12:50 AM 36.5°F2.5°C 34.7°F1.5°C - 5.0 mph SSE8.0 kmh SSE 8.0 mph12.9 kmh 30.08 in1018.6 mb 0.00 in0.0 mm 0.00 in/hr0.0 mm/hr 0.00 in0.0 mm
12:45 AM 36.4°F2.4°C 34.6°F1.4°C - 5.0 mph SSE8.0 kmh SSE 9.0 mph14.5 kmh 30.08 in1018.6 mb 0.00 in0.0 mm 0.00 in/hr0.0 mm/hr 0.00 in0.0 mm
12:40 AM 36.3°F2.4°C 34.4°F1.3°C - 5.0 mph SE8.0 kmh SE 9.0 mph14.5 kmh 30.08 in1018.6 mb 0.00 in0.0 mm 0.00 in/hr0.0 mm/hr 0.00 in0.0 mm
12:35 AM 36.3°F2.4°C 34.2°F1.2°C - 5.0 mph SSE8.0 kmh SSE 10.0 mph16.1 kmh 30.08 in1018.6 mb 0.00 in0.0 mm 0.00 in/hr0.0 mm/hr 0.00 in0.0 mm
12:30 AM 36.2°F2.3°C 34.2°F1.2°C - 6.0 mph SSE9.7 kmh SSE 9.0 mph14.5 kmh 30.08 in1018.6 mb 0.00 in0.0 mm 0.00 in/hr0.0 mm/hr 0.00 in0.0 mm
12:25 AM 36.1°F2.3°C 34.0°F1.1°C - 4.0 mph SSE6.4 kmh SSE 9.0 mph14.5 kmh 30.08 in1018.6 mb 0.00 in0.0 mm 0.00 in/hr0.0 mm/hr 0.00 in0.0 mm
12:20 AM 36.1°F2.3°C 33.8°F1.0°C - 4.0 mph SE6.4 kmh SE 10.0 mph16.1 kmh 30.08 in1018.6 mb 0.00 in0.0 mm 0.00 in/hr0.0 mm/hr 0.00 in0.0 mm
12:15 AM 36.1°F2.3°C 33.8°F1.0°C - 4.0 mph SE6.4 kmh SE 7.0 mph11.3 kmh 30.08 in1018.6 mb 0.00 in0.0 mm 0.00 in/hr0.0 mm/hr 0.00 in0.0 mm
12:10 AM 36.0°F2.2°C 33.6°F0.9°C - 4.0 mph SE6.4 kmh SE 7.0 mph11.3 kmh 30.08 in1018.6 mb 0.00 in0.0 mm 0.00 in/hr0.0 mm/hr 0.00 in0.0 mm
12:05 AM 36.0°F2.2°C 33.3°F0.7°C - 5.0 mph SSE8.0 kmh SSE 9.0 mph14.5 kmh 30.09 in1019.0 mb 0.00 in0.0 mm 0.00 in/hr0.0 mm/hr 0.00 in0.0 mm
12:00 AM 36.0°F2.2°C 33.3°F0.7°C - 6.0 mph SSE9.7 kmh SSE 10.0 mph16.1 kmh 30.11 in1019.6 mb 0.00 in0.0 mm 0.00 in/hr0.0 mm/hr 0.00 in0.0 mm